sensor_id;sensor_type;location;lat;lon;timestamp;pressure;altitude;pressure_sealevel;temperature;humidity
56070;BME280;41944;52.078;-0.058;2023-05-21T00:01:46;102100.78;;;10.06;88.39
56070;BME280;41944;52.078;-0.058;2023-05-21T00:04:13;102103.25;;;10.23;88.19
56070;BME280;41944;52.078;-0.058;2023-05-21T00:06:40;102105.58;;;10.02;88.47
56070;BME280;41944;52.078;-0.058;2023-05-21T00:09:07;102107.85;;;10.20;87.49
56070;BME280;41944;52.078;-0.058;2023-05-21T00:11:34;102106.29;;;10.33;85.93
56070;BME280;41944;52.078;-0.058;2023-05-21T00:14:01;102104.45;;;10.15;86.14
56070;BME280;41944;52.078;-0.058;2023-05-21T00:16:28;102106.36;;;9.86;86.51
56070;BME280;41944;52.078;-0.058;2023-05-21T00:18:54;102105.41;;;9.98;86.11
56070;BME280;41944;52.078;-0.058;2023-05-21T00:21:21;102104.46;;;9.72;85.71
56070;BME280;41944;52.078;-0.058;2023-05-21T00:23:48;102103.33;;;9.66;86.31
56070;BME280;41944;52.078;-0.058;2023-05-21T00:26:16;102103.69;;;9.75;84.92
56070;BME280;41944;52.078;-0.058;2023-05-21T00:28:43;102097.34;;;9.66;85.07
56070;BME280;41944;52.078;-0.058;2023-05-21T00:31:10;102091.12;;;9.48;85.74
56070;BME280;41944;52.078;-0.058;2023-05-21T00:33:37;102088.33;;;9.51;85.80
56070;BME280;41944;52.078;-0.058;2023-05-21T00:36:04;102087.71;;;9.42;85.93
56070;BME280;41944;52.078;-0.058;2023-05-21T00:38:31;102087.09;;;9.33;86.58
56070;BME280;41944;52.078;-0.058;2023-05-21T00:40:59;102081.53;;;9.17;88.02
56070;BME280;41944;52.078;-0.058;2023-05-21T00:43:28;102080.55;;;9.03;88.73
56070;BME280;41944;52.078;-0.058;2023-05-21T00:45:54;102077.40;;;9.09;88.32
56070;BME280;41944;52.078;-0.058;2023-05-21T00:48:22;102082.68;;;9.27;87.92
56070;BME280;41944;52.078;-0.058;2023-05-21T00:50:50;102082.83;;;9.12;87.35
56070;BME280;41944;52.078;-0.058;2023-05-21T00:53:18;102082.23;;;8.97;88.62
56070;BME280;41944;52.078;-0.058;2023-05-21T00:55:45;102078.41;;;9.13;88.02
56070;BME280;41944;52.078;-0.058;2023-05-21T00:58:12;102076.28;;;9.14;88.01
56070;BME280;41944;52.078;-0.058;2023-05-21T01:00:39;102074.27;;;9.20;87.59
56070;BME280;41944;52.078;-0.058;2023-05-21T01:03:06;102072.57;;;9.26;87.43
56070;BME280;41944;52.078;-0.058;2023-05-21T01:05:34;102072.63;;;9.30;86.69
56070;BME280;41944;52.078;-0.058;2023-05-21T01:08:02;102071.73;;;9.42;85.07
56070;BME280;41944;52.078;-0.058;2023-05-21T01:10:29;102072.99;;;9.12;85.23
56070;BME280;41944;52.078;-0.058;2023-05-21T01:12:57;102075.73;;;9.19;85.38
56070;BME280;41944;52.078;-0.058;2023-05-21T01:15:24;102074.89;;;9.03;86.47
56070;BME280;41944;52.078;-0.058;2023-05-21T01:17:53;102079.45;;;8.95;87.31
56070;BME280;41944;52.078;-0.058;2023-05-21T01:20:22;102079.25;;;8.71;88.48
56070;BME280;41944;52.078;-0.058;2023-05-21T01:22:51;102079.24;;;8.53;89.59
56070;BME280;41944;52.078;-0.058;2023-05-21T01:25:19;102076.52;;;8.50;90.08
56070;BME280;41944;52.078;-0.058;2023-05-21T01:27:45;102074.49;;;8.42;90.39
56070;BME280;41944;52.078;-0.058;2023-05-21T01:30:14;102077.74;;;8.51;89.88
56070;BME280;41944;52.078;-0.058;2023-05-21T01:32:50;102079.65;;;8.57;90.20
56070;BME280;41944;52.078;-0.058;2023-05-21T01:35:22;102082.76;;;8.63;89.70
56070;BME280;41944;52.078;-0.058;2023-05-21T01:37:56;102081.06;;;8.62;89.79
56070;BME280;41944;52.078;-0.058;2023-05-21T01:40:36;102081.48;;;8.70;89.30
56070;BME280;41944;52.078;-0.058;2023-05-21T01:43:06;102080.28;;;8.44;90.50
56070;BME280;41944;52.078;-0.058;2023-05-21T01:45:36;102084.08;;;8.33;90.81
56070;BME280;41944;52.078;-0.058;2023-05-21T01:48:07;102087.06;;;8.21;91.58
56070;BME280;41944;52.078;-0.058;2023-05-21T01:50:35;102089.77;;;8.30;91.64
56070;BME280;41944;52.078;-0.058;2023-05-21T01:53:03;102090.32;;;8.40;91.33
56070;BME280;41944;52.078;-0.058;2023-05-21T01:55:31;102093.68;;;8.60;90.65
56070;BME280;41944;52.078;-0.058;2023-05-21T01:57:59;102088.40;;;8.45;91.81
56070;BME280;41944;52.078;-0.058;2023-05-21T02:00:26;102088.24;;;8.42;93.45
56070;BME280;41944;52.078;-0.058;2023-05-21T02:02:54;102084.89;;;8.38;94.87
56070;BME280;41944;52.078;-0.058;2023-05-21T02:05:21;102083.68;;;8.48;96.34
56070;BME280;41944;52.078;-0.058;2023-05-21T02:07:49;102083.38;;;8.63;96.55
56070;BME280;41944;52.078;-0.058;2023-05-21T02:10:17;102082.38;;;8.69;97.29
56070;BME280;41944;52.078;-0.058;2023-05-21T02:12:44;102079.01;;;8.73;97.20
56070;BME280;41944;52.078;-0.058;2023-05-21T02:15:12;102075.43;;;8.71;98.88
56070;BME280;41944;52.078;-0.058;2023-05-21T02:17:39;102075.31;;;8.88;98.76
56070;BME280;41944;52.078;-0.058;2023-05-21T02:20:07;102077.69;;;8.71;100.00
56070;BME280;41944;52.078;-0.058;2023-05-21T02:22:34;102079.00;;;8.69;100.00
56070;BME280;41944;52.078;-0.058;2023-05-21T02:25:00;102075.39;;;8.64;100.00
56070;BME280;41944;52.078;-0.058;2023-05-21T02:27:27;102076.29;;;8.62;100.00
56070;BME280;41944;52.078;-0.058;2023-05-21T02:29:54;102079.59;;;8.54;100.00
56070;BME280;41944;52.078;-0.058;2023-05-21T02:32:21;102080.51;;;8.60;100.00
56070;BME280;41944;52.078;-0.058;2023-05-21T02:34:48;102076.33;;;8.48;100.00
56070;BME280;41944;52.078;-0.058;2023-05-21T02:37:16;102074.88;;;8.47;100.00
56070;BME280;41944;52.078;-0.058;2023-05-21T02:39:43;102078.21;;;8.55;100.00
56070;BME280;41944;52.078;-0.058;2023-05-21T02:42:10;102078.26;;;8.56;100.00
56070;BME280;41944;52.078;-0.058;2023-05-21T02:44:37;102073.49;;;8.53;100.00
56070;BME280;41944;52.078;-0.058;2023-05-21T02:47:04;102071.79;;;8.70;99.07
56070;BME280;41944;52.078;-0.058;2023-05-21T02:49:31;102073.10;;;8.81;97.77
56070;BME280;41944;52.078;-0.058;2023-05-21T02:51:58;102075.62;;;8.68;97.72
56070;BME280;41944;52.078;-0.058;2023-05-21T02:54:25;102077.16;;;8.76;96.40
56070;BME280;41944;52.078;-0.058;2023-05-21T02:56:52;102077.05;;;8.94;95.36
56070;BME280;41944;52.078;-0.058;2023-05-21T02:59:19;102072.21;;;8.83;95.19
56070;BME280;41944;52.078;-0.058;2023-05-21T03:01:46;102068.24;;;8.66;95.13
56070;BME280;41944;52.078;-0.058;2023-05-21T03:04:13;102067.33;;;8.82;95.05
56070;BME280;41944;52.078;-0.058;2023-05-21T03:06:40;102064.47;;;8.85;93.85
56070;BME280;41944;52.078;-0.058;2023-05-21T03:09:07;102060.37;;;8.77;93.50
56070;BME280;41944;52.078;-0.058;2023-05-21T03:11:34;102059.33;;;8.65;93.73
56070;BME280;41944;52.078;-0.058;2023-05-21T03:14:01;102057.07;;;8.98;91.26
56070;BME280;41944;52.078;-0.058;2023-05-21T03:16:28;102056.33;;;8.70;91.39
56070;BME280;41944;52.078;-0.058;2023-05-21T03:18:54;102059.21;;;8.69;91.27
56070;BME280;41944;52.078;-0.058;2023-05-21T03:21:21;102054.29;;;8.58;91.79
56070;BME280;41944;52.078;-0.058;2023-05-21T03:23:48;102051.23;;;8.51;92.58
56070;BME280;41944;52.078;-0.058;2023-05-21T03:26:15;102046.98;;;8.39;93.49
56070;BME280;41944;52.078;-0.058;2023-05-21T03:28:42;102048.30;;;8.44;93.14
56070;BME280;41944;52.078;-0.058;2023-05-21T03:31:09;102047.45;;;8.45;93.20
56070;BME280;41944;52.078;-0.058;2023-05-21T03:33:36;102049.53;;;8.42;93.21
56070;BME280;41944;52.078;-0.058;2023-05-21T03:36:03;102050.58;;;8.38;93.15
56070;BME280;41944;52.078;-0.058;2023-05-21T03:38:30;102048.56;;;8.45;93.00
56070;BME280;41944;52.078;-0.058;2023-05-21T03:40:57;102047.88;;;8.30;93.21
56070;BME280;41944;52.078;-0.058;2023-05-21T03:43:24;102049.78;;;8.26;93.29
56070;BME280;41944;52.078;-0.058;2023-05-21T03:45:52;102046.26;;;8.22;93.39
56070;BME280;41944;52.078;-0.058;2023-05-21T03:48:19;102049.12;;;8.10;94.61
56070;BME280;41944;52.078;-0.058;2023-05-21T03:50:46;102047.58;;;8.04;96.03
56070;BME280;41944;52.078;-0.058;2023-05-21T03:53:13;102049.10;;;7.97;96.74
56070;BME280;41944;52.078;-0.058;2023-05-21T03:55:40;102046.79;;;8.25;95.11
56070;BME280;41944;52.078;-0.058;2023-05-21T03:58:08;102046.34;;;8.17;93.99
56070;BME280;41944;52.078;-0.058;2023-05-21T04:00:34;102050.54;;;8.43;92.32
56070;BME280;41944;52.078;-0.058;2023-05-21T04:03:01;102054.22;;;8.37;91.09
56070;BME280;41944;52.078;-0.058;2023-05-21T04:05:28;102057.61;;;8.26;91.80
56070;BME280;41944;52.078;-0.058;2023-05-21T04:07:56;102060.38;;;7.94;95.12
56070;BME280;41944;52.078;-0.058;2023-05-21T04:10:23;102061.62;;;7.90;96.10
56070;BME280;41944;52.078;-0.058;2023-05-21T04:12:49;102061.48;;;8.03;96.22
56070;BME280;41944;52.078;-0.058;2023-05-21T04:15:17;102057.15;;;8.08;97.99
56070;BME280;41944;52.078;-0.058;2023-05-21T04:17:44;102058.03;;;8.13;98.59
56070;BME280;41944;52.078;-0.058;2023-05-21T04:20:11;102055.04;;;8.27;97.65
56070;BME280;41944;52.078;-0.058;2023-05-21T04:22:38;102051.92;;;8.30;95.36
56070;BME280;41944;52.078;-0.058;2023-05-21T04:25:05;102056.23;;;8.20;95.72
56070;BME280;41944;52.078;-0.058;2023-05-21T04:27:32;102060.77;;;8.41;95.47
56070;BME280;41944;52.078;-0.058;2023-05-21T04:29:59;102062.33;;;8.39;95.68
56070;BME280;41944;52.078;-0.058;2023-05-21T04:32:26;102061.15;;;8.24;99.12
56070;BME280;41944;52.078;-0.058;2023-05-21T04:34:53;102063.58;;;8.37;100.00
56070;BME280;41944;52.078;-0.058;2023-05-21T04:37:19;102063.91;;;8.42;100.00
56070;BME280;41944;52.078;-0.058;2023-05-21T04:39:46;102062.93;;;8.60;100.00
56070;BME280;41944;52.078;-0.058;2023-05-21T04:42:13;102065.90;;;8.87;99.99
56070;BME280;41944;52.078;-0.058;2023-05-21T04:44:40;102067.71;;;8.98;99.56
56070;BME280;41944;52.078;-0.058;2023-05-21T04:47:07;102072.72;;;9.04;100.00
56070;BME280;41944;52.078;-0.058;2023-05-21T04:49:34;102072.64;;;9.09;99.49
56070;BME280;41944;52.078;-0.058;2023-05-21T04:52:02;102070.43;;;9.29;98.80
56070;BME280;41944;52.078;-0.058;2023-05-21T04:54:29;102069.78;;;9.25;98.40
56070;BME280;41944;52.078;-0.058;2023-05-21T04:56:56;102067.25;;;9.21;98.75
56070;BME280;41944;52.078;-0.058;2023-05-21T04:59:23;102067.21;;;9.13;99.98
56070;BME280;41944;52.078;-0.058;2023-05-21T05:01:50;102065.76;;;8.97;100.00
56070;BME280;41944;52.078;-0.058;2023-05-21T05:04:17;102066.75;;;9.05;100.00
56070;BME280;41944;52.078;-0.058;2023-05-21T05:06:44;102066.94;;;9.11;100.00
56070;BME280;41944;52.078;-0.058;2023-05-21T05:09:11;102066.16;;;9.26;100.00
56070;BME280;41944;52.078;-0.058;2023-05-21T05:11:38;102068.34;;;9.39;100.00
56070;BME280;41944;52.078;-0.058;2023-05-21T05:14:06;102069.14;;;9.55;99.17
56070;BME280;41944;52.078;-0.058;2023-05-21T05:16:33;102061.72;;;9.52;98.92
56070;BME280;41944;52.078;-0.058;2023-05-21T05:19:00;102060.14;;;9.51;99.71
56070;BME280;41944;52.078;-0.058;2023-05-21T05:21:28;102061.70;;;9.61;99.76
56070;BME280;41944;52.078;-0.058;2023-05-21T05:23:54;102060.59;;;9.76;99.71
56070;BME280;41944;52.078;-0.058;2023-05-21T05:26:21;102058.65;;;9.83;99.64
56070;BME280;41944;52.078;-0.058;2023-05-21T05:28:48;102052.77;;;9.93;99.51
56070;BME280;41944;52.078;-0.058;2023-05-21T05:31:15;102048.02;;;10.19;98.97
56070;BME280;41944;52.078;-0.058;2023-05-21T05:33:42;102047.34;;;10.20;97.99
56070;BME280;41944;52.078;-0.058;2023-05-21T05:36:09;102050.75;;;10.15;98.41
56070;BME280;41944;52.078;-0.058;2023-05-21T05:38:36;102049.33;;;10.25;97.77
56070;BME280;41944;52.078;-0.058;2023-05-21T05:41:03;102045.56;;;10.53;96.71
56070;BME280;41944;52.078;-0.058;2023-05-21T05:43:30;102045.13;;;10.59;96.36
56070;BME280;41944;52.078;-0.058;2023-05-21T05:45:57;102046.20;;;10.66;95.83
56070;BME280;41944;52.078;-0.058;2023-05-21T05:48:24;102045.78;;;10.69;96.70
56070;BME280;41944;52.078;-0.058;2023-05-21T05:50:51;102048.29;;;10.86;95.59
56070;BME280;41944;52.078;-0.058;2023-05-21T05:53:18;102047.69;;;11.01;94.88
56070;BME280;41944;52.078;-0.058;2023-05-21T05:55:46;102049.07;;;11.03;95.67
56070;BME280;41944;52.078;-0.058;2023-05-21T05:58:12;102046.67;;;11.09;95.14
56070;BME280;41944;52.078;-0.058;2023-05-21T06:00:39;102048.87;;;11.22;94.93
56070;BME280;41944;52.078;-0.058;2023-05-21T06:03:06;102049.16;;;11.24;94.40
56070;BME280;41944;52.078;-0.058;2023-05-21T06:05:33;102044.26;;;11.42;93.89
56070;BME280;41944;52.078;-0.058;2023-05-21T06:08:00;102045.34;;;11.52;93.66
56070;BME280;41944;52.078;-0.058;2023-05-21T06:10:27;102049.48;;;11.38;94.36
56070;BME280;41944;52.078;-0.058;2023-05-21T06:12:54;102047.65;;;11.43;95.05
56070;BME280;41944;52.078;-0.058;2023-05-21T06:15:21;102041.93;;;11.50;95.05
56070;BME280;41944;52.078;-0.058;2023-05-21T06:17:48;102040.28;;;11.65;93.66
56070;BME280;41944;52.078;-0.058;2023-05-21T06:20:15;102037.25;;;11.69;94.42
56070;BME280;41944;52.078;-0.058;2023-05-21T06:22:42;102038.78;;;11.92;93.72
56070;BME280;41944;52.078;-0.058;2023-05-21T06:25:09;102040.05;;;11.92;93.57
56070;BME280;41944;52.078;-0.058;2023-05-21T06:27:36;102035.68;;;11.69;94.03
56070;BME280;41944;52.078;-0.058;2023-05-21T06:30:05;102035.24;;;11.78;94.99
56070;BME280;41944;52.078;-0.058;2023-05-21T06:32:32;102030.45;;;11.94;94.52
56070;BME280;41944;52.078;-0.058;2023-05-21T06:34:59;102030.03;;;11.85;95.76
56070;BME280;41944;52.078;-0.058;2023-05-21T06:37:26;102030.78;;;12.11;95.18
56070;BME280;41944;52.078;-0.058;2023-05-21T06:39:52;102033.95;;;12.26;93.38
56070;BME280;41944;52.078;-0.058;2023-05-21T06:42:19;102033.13;;;12.42;92.64
56070;BME280;41944;52.078;-0.058;2023-05-21T06:44:46;102036.01;;;12.57;91.74
56070;BME280;41944;52.078;-0.058;2023-05-21T06:47:12;102031.32;;;12.63;91.06
56070;BME280;41944;52.078;-0.058;2023-05-21T06:49:39;102035.86;;;12.79;89.47
56070;BME280;41944;52.078;-0.058;2023-05-21T06:52:06;102036.29;;;12.95;88.66
56070;BME280;41944;52.078;-0.058;2023-05-21T06:54:33;102032.16;;;12.95;87.99
56070;BME280;41944;52.078;-0.058;2023-05-21T06:56:59;102033.18;;;13.10;87.17
56070;BME280;41944;52.078;-0.058;2023-05-21T06:59:26;102029.33;;;12.98;87.80
56070;BME280;41944;52.078;-0.058;2023-05-21T07:01:54;102025.97;;;13.06;88.69
56070;BME280;41944;52.078;-0.058;2023-05-21T07:04:21;102025.42;;;13.26;86.51
56070;BME280;41944;52.078;-0.058;2023-05-21T07:06:47;102030.47;;;13.33;85.76
56070;BME280;41944;52.078;-0.058;2023-05-21T07:09:14;102030.78;;;13.11;86.37
56070;BME280;41944;52.078;-0.058;2023-05-21T07:11:41;102024.59;;;13.38;85.01
56070;BME280;41944;52.078;-0.058;2023-05-21T07:14:08;102022.29;;;13.38;85.73
56070;BME280;41944;52.078;-0.058;2023-05-21T07:16:35;102024.79;;;13.55;85.22
56070;BME280;41944;52.078;-0.058;2023-05-21T07:19:02;102023.49;;;13.69;85.01
56070;BME280;41944;52.078;-0.058;2023-05-21T07:21:29;102018.25;;;14.01;82.86
56070;BME280;41944;52.078;-0.058;2023-05-21T07:23:56;102019.31;;;14.01;82.08
56070;BME280;41944;52.078;-0.058;2023-05-21T07:26:23;102015.42;;;13.99;81.81
56070;BME280;41944;52.078;-0.058;2023-05-21T07:28:51;102018.53;;;14.14;81.09
56070;BME280;41944;52.078;-0.058;2023-05-21T07:31:18;102013.64;;;13.97;82.24
56070;BME280;41944;52.078;-0.058;2023-05-21T07:33:45;102019.52;;;14.05;82.78
56070;BME280;41944;52.078;-0.058;2023-05-21T07:36:11;102021.27;;;14.09;83.84
56070;BME280;41944;52.078;-0.058;2023-05-21T07:38:38;102024.59;;;14.24;82.90
56070;BME280;41944;52.078;-0.058;2023-05-21T07:41:05;102026.68;;;14.41;80.67
56070;BME280;41944;52.078;-0.058;2023-05-21T07:43:32;102027.74;;;14.39;81.03
56070;BME280;41944;52.078;-0.058;2023-05-21T07:45:59;102029.12;;;14.53;79.87
56070;BME280;41944;52.078;-0.058;2023-05-21T07:48:26;102032.71;;;14.71;78.84
56070;BME280;41944;52.078;-0.058;2023-05-21T07:50:53;102032.91;;;14.74;79.45
56070;BME280;41944;52.078;-0.058;2023-05-21T07:53:20;102038.00;;;14.77;78.13
56070;BME280;41944;52.078;-0.058;2023-05-21T07:55:47;102038.17;;;14.69;77.51
56070;BME280;41944;52.078;-0.058;2023-05-21T07:58:15;102039.06;;;14.79;78.30
56070;BME280;41944;52.078;-0.058;2023-05-21T08:00:43;102037.04;;;14.95;78.76
56070;BME280;41944;52.078;-0.058;2023-05-21T08:03:10;102039.86;;;15.07;76.95
56070;BME280;41944;52.078;-0.058;2023-05-21T08:05:37;102036.77;;;14.97;76.69
56070;BME280;41944;52.078;-0.058;2023-05-21T08:08:04;102038.69;;;15.12;75.36
56070;BME280;41944;52.078;-0.058;2023-05-21T08:10:32;102035.48;;;15.21;77.32
56070;BME280;41944;52.078;-0.058;2023-05-21T08:12:59;102033.08;;;15.24;76.67
56070;BME280;41944;52.078;-0.058;2023-05-21T08:15:25;102021.66;;;15.41;75.48
56070;BME280;41944;52.078;-0.058;2023-05-21T08:17:52;102018.99;;;15.29;76.37
56070;BME280;41944;52.078;-0.058;2023-05-21T08:20:19;102009.74;;;15.60;76.87
56070;BME280;41944;52.078;-0.058;2023-05-21T08:22:45;102012.40;;;15.73;74.63
56070;BME280;41944;52.078;-0.058;2023-05-21T08:25:12;102012.99;;;15.80;74.79
56070;BME280;41944;52.078;-0.058;2023-05-21T08:27:39;102017.25;;;15.80;74.64
56070;BME280;41944;52.078;-0.058;2023-05-21T08:30:08;102016.19;;;15.88;75.57
56070;BME280;41944;52.078;-0.058;2023-05-21T08:32:35;102016.93;;;16.11;74.31
56070;BME280;41944;52.078;-0.058;2023-05-21T08:35:03;102017.73;;;16.02;72.07
56070;BME280;41944;52.078;-0.058;2023-05-21T08:37:30;102021.56;;;16.22;72.31
56070;BME280;41944;52.078;-0.058;2023-05-21T08:39:57;102020.92;;;16.24;72.12
56070;BME280;41944;52.078;-0.058;2023-05-21T08:42:32;102017.69;;;16.32;72.07
56070;BME280;41944;52.078;-0.058;2023-05-21T08:45:04;102013.13;;;16.38;72.70
56070;BME280;41944;52.078;-0.058;2023-05-21T08:47:34;102015.86;;;16.52;73.35
56070;BME280;41944;52.078;-0.058;2023-05-21T08:50:02;102014.40;;;16.59;72.47
56070;BME280;41944;52.078;-0.058;2023-05-21T08:52:30;102020.34;;;16.79;70.99
56070;BME280;41944;52.078;-0.058;2023-05-21T08:54:57;102020.64;;;16.97;70.67
56070;BME280;41944;52.078;-0.058;2023-05-21T08:57:26;102022.19;;;17.26;70.70
56070;BME280;41944;52.078;-0.058;2023-05-21T08:59:53;102019.77;;;17.20;68.20
56070;BME280;41944;52.078;-0.058;2023-05-21T09:02:20;102014.38;;;17.12;67.69
56070;BME280;41944;52.078;-0.058;2023-05-21T09:04:49;102016.50;;;17.23;67.19
56070;BME280;41944;52.078;-0.058;2023-05-21T09:07:17;102017.09;;;17.31;66.24
56070;BME280;41944;52.078;-0.058;2023-05-21T09:09:47;102017.66;;;17.36;66.56
56070;BME280;41944;52.078;-0.058;2023-05-21T09:12:17;102018.32;;;17.32;64.84
56070;BME280;41944;52.078;-0.058;2023-05-21T09:14:46;102013.83;;;17.31;64.16
56070;BME280;41944;52.078;-0.058;2023-05-21T09:17:14;102017.80;;;17.27;63.94
56070;BME280;41944;52.078;-0.058;2023-05-21T09:20:05;102015.25;;;17.27;65.12
56070;BME280;41944;52.078;-0.058;2023-05-21T09:22:33;102011.62;;;17.36;65.05
56070;BME280;41944;52.078;-0.058;2023-05-21T09:25:04;102015.71;;;17.44;62.79
56070;BME280;41944;52.078;-0.058;2023-05-21T09:27:31;102014.67;;;17.31;62.79
56070;BME280;41944;52.078;-0.058;2023-05-21T09:29:58;102020.39;;;17.40;61.85
56070;BME280;41944;52.078;-0.058;2023-05-21T09:32:25;102012.36;;;17.45;60.60
56070;BME280;41944;52.078;-0.058;2023-05-21T09:34:52;102016.58;;;17.58;61.57
56070;BME280;41944;52.078;-0.058;2023-05-21T09:37:20;102022.03;;;17.78;61.27
56070;BME280;41944;52.078;-0.058;2023-05-21T09:39:47;102004.94;;;17.67;60.65
56070;BME280;41944;52.078;-0.058;2023-05-21T09:42:14;102005.87;;;17.80;60.89
56070;BME280;41944;52.078;-0.058;2023-05-21T09:44:42;102006.90;;;17.87;58.39
56070;BME280;41944;52.078;-0.058;2023-05-21T09:47:09;102003.50;;;17.85;58.84
56070;BME280;41944;52.078;-0.058;2023-05-21T09:49:36;102006.65;;;17.58;60.39
56070;BME280;41944;52.078;-0.058;2023-05-21T09:52:04;102002.93;;;17.47;60.61
56070;BME280;41944;52.078;-0.058;2023-05-21T09:54:33;101995.59;;;17.66;59.64
56070;BME280;41944;52.078;-0.058;2023-05-21T09:57:00;101998.10;;;17.66;59.87
56070;BME280;41944;52.078;-0.058;2023-05-21T09:59:35;101989.38;;;17.51;58.43
56070;BME280;41944;52.078;-0.058;2023-05-21T10:02:02;101989.91;;;17.52;58.21
56070;BME280;41944;52.078;-0.058;2023-05-21T10:04:40;101998.04;;;17.75;58.62
56070;BME280;41944;52.078;-0.058;2023-05-21T10:07:07;101992.38;;;17.75;58.11
56070;BME280;41944;52.078;-0.058;2023-05-21T10:09:34;101992.70;;;17.87;57.92
56070;BME280;41944;52.078;-0.058;2023-05-21T10:12:02;101990.08;;;17.62;59.19
56070;BME280;41944;52.078;-0.058;2023-05-21T10:14:31;101997.73;;;17.85;57.37
56070;BME280;41944;52.078;-0.058;2023-05-21T10:17:00;101993.53;;;17.52;57.53
56070;BME280;41944;52.078;-0.058;2023-05-21T10:19:30;101993.29;;;17.81;56.70
56070;BME280;41944;52.078;-0.058;2023-05-21T10:21:59;101987.64;;;17.95;56.52
56070;BME280;41944;52.078;-0.058;2023-05-21T10:24:27;101985.64;;;18.07;55.86
56070;BME280;41944;52.078;-0.058;2023-05-21T10:26:55;101981.85;;;17.93;56.11
56070;BME280;41944;52.078;-0.058;2023-05-21T10:29:22;101979.53;;;18.03;55.82
56070;BME280;41944;52.078;-0.058;2023-05-21T10:31:51;101976.35;;;18.08;56.84
56070;BME280;41944;52.078;-0.058;2023-05-21T10:34:20;101977.15;;;18.29;56.99
56070;BME280;41944;52.078;-0.058;2023-05-21T10:36:50;101973.22;;;18.34;55.24
56070;BME280;41944;52.078;-0.058;2023-05-21T10:39:18;101973.12;;;18.37;55.00
56070;BME280;41944;52.078;-0.058;2023-05-21T10:41:53;101967.95;;;18.46;55.41
56070;BME280;41944;52.078;-0.058;2023-05-21T10:44:35;101980.03;;;18.40;56.25
56070;BME280;41944;52.078;-0.058;2023-05-21T10:47:29;101979.69;;;18.22;55.95
56070;BME280;41944;52.078;-0.058;2023-05-21T10:50:19;101970.95;;;18.10;55.56
56070;BME280;41944;52.078;-0.058;2023-05-21T10:53:04;101963.76;;;18.10;54.96
56070;BME280;41944;52.078;-0.058;2023-05-21T10:55:41;101965.29;;;18.30;55.25
56070;BME280;41944;52.078;-0.058;2023-05-21T10:58:31;101968.85;;;18.25;55.30
56070;BME280;41944;52.078;-0.058;2023-05-21T11:01:02;101964.14;;;18.21;56.71
56070;BME280;41944;52.078;-0.058;2023-05-21T11:03:30;101965.26;;;17.93;55.13
56070;BME280;41944;52.078;-0.058;2023-05-21T11:06:01;101955.38;;;18.12;53.80
56070;BME280;41944;52.078;-0.058;2023-05-21T11:08:30;101955.90;;;18.31;54.03
56070;BME280;41944;52.078;-0.058;2023-05-21T11:10:57;101951.24;;;18.63;53.94
56070;BME280;41944;52.078;-0.058;2023-05-21T11:13:25;101948.07;;;18.74;52.62
56070;BME280;41944;52.078;-0.058;2023-05-21T11:16:13;101956.33;;;18.42;53.03
56070;BME280;41944;52.078;-0.058;2023-05-21T11:18:58;101952.43;;;18.24;54.30
56070;BME280;41944;52.078;-0.058;2023-05-21T11:21:29;101949.68;;;18.25;53.66
56070;BME280;41944;52.078;-0.058;2023-05-21T11:24:03;101938.89;;;18.45;54.05
56070;BME280;41944;52.078;-0.058;2023-05-21T11:26:58;101951.10;;;18.59;53.16
56070;BME280;41944;52.078;-0.058;2023-05-21T11:29:34;101940.00;;;18.63;52.47
56070;BME280;41944;52.078;-0.058;2023-05-21T11:32:02;101945.08;;;18.67;52.40
56070;BME280;41944;52.078;-0.058;2023-05-21T11:34:36;101944.36;;;18.73;51.72
56070;BME280;41944;52.078;-0.058;2023-05-21T11:37:37;101940.49;;;18.84;52.72
56070;BME280;41944;52.078;-0.058;2023-05-21T11:40:37;101941.18;;;18.84;52.16
56070;BME280;41944;52.078;-0.058;2023-05-21T11:43:17;101932.97;;;18.90;50.59
56070;BME280;41944;52.078;-0.058;2023-05-21T11:45:45;101929.51;;;19.09;50.07
56070;BME280;41944;52.078;-0.058;2023-05-21T11:48:13;101937.86;;;18.95;49.28
56070;BME280;41944;52.078;-0.058;2023-05-21T11:50:40;101932.49;;;18.61;49.41
56070;BME280;41944;52.078;-0.058;2023-05-21T11:53:07;101930.09;;;18.88;50.52
56070;BME280;41944;52.078;-0.058;2023-05-21T11:55:37;101918.13;;;18.92;49.34
56070;BME280;41944;52.078;-0.058;2023-05-21T11:58:05;101933.97;;;19.01;50.23
56070;BME280;41944;52.078;-0.058;2023-05-21T12:00:37;101932.42;;;18.97;48.63
56070;BME280;41944;52.078;-0.058;2023-05-21T12:03:04;101928.58;;;18.95;48.40
56070;BME280;41944;52.078;-0.058;2023-05-21T12:05:43;101925.01;;;19.11;48.64
56070;BME280;41944;52.078;-0.058;2023-05-21T12:08:10;101922.70;;;19.33;48.68
56070;BME280;41944;52.078;-0.058;2023-05-21T12:10:37;101914.68;;;19.52;48.70
56070;BME280;41944;52.078;-0.058;2023-05-21T12:13:04;101926.81;;;19.82;48.57
56070;BME280;41944;52.078;-0.058;2023-05-21T12:15:31;101920.33;;;19.73;47.12
56070;BME280;41944;52.078;-0.058;2023-05-21T12:17:57;101910.61;;;19.51;46.15
56070;BME280;41944;52.078;-0.058;2023-05-21T12:20:26;101912.25;;;19.53;45.59
56070;BME280;41944;52.078;-0.058;2023-05-21T12:22:53;101909.70;;;19.53;45.97
56070;BME280;41944;52.078;-0.058;2023-05-21T12:25:20;101913.66;;;19.74;46.82
56070;BME280;41944;52.078;-0.058;2023-05-21T12:27:48;101905.22;;;19.60;45.25
56070;BME280;41944;52.078;-0.058;2023-05-21T12:30:16;101904.13;;;19.67;46.29
56070;BME280;41944;52.078;-0.058;2023-05-21T12:32:43;101902.65;;;19.49;46.91
56070;BME280;41944;52.078;-0.058;2023-05-21T12:35:19;101899.27;;;19.52;46.43
56070;BME280;41944;52.078;-0.058;2023-05-21T12:37:47;101889.98;;;19.63;47.26
56070;BME280;41944;52.078;-0.058;2023-05-21T12:40:15;101890.21;;;19.61;47.14
56070;BME280;41944;52.078;-0.058;2023-05-21T12:42:42;101886.35;;;19.75;46.87
56070;BME280;41944;52.078;-0.058;2023-05-21T12:45:10;101884.88;;;19.89;47.59
56070;BME280;41944;52.078;-0.058;2023-05-21T12:47:37;101889.76;;;19.90;46.66
56070;BME280;41944;52.078;-0.058;2023-05-21T12:50:07;101880.65;;;20.07;47.96